Time;durP1;ratioP1;P1;durP2;ratioP2;P2;SDS_P1;SDS_P2;PMS_P1;PMS_P2;Temp;Humidity;BMP_temperature;BMP_pressure;BME280_temperature;BME280_humidity;BME280_pressure;Samples;Min_cycle;Max_cycle;Signal;HPM_P1;HPM_P2
2022/07/30 00:01:52;;;;;;;9.70;4.08;;;;;;;20.46;100.00;99912.41;1734351;82;20988;-74
2022/07/30 00:04:19;;;;;;;7.17;4.20;;;;;;;20.41;100.00;99907.05;1730218;82;21042;-70
2022/07/30 00:06:45;;;;;;;7.12;4.30;;;;;;;20.42;100.00;99908.69;1747084;82;21387;-70
2022/07/30 00:09:12;;;;;;;8.43;3.92;;;;;;;20.39;100.00;99904.64;1728002;82;21031;-70
2022/07/30 00:11:38;;;;;;;7.80;3.80;;;;;;;20.34;100.00;99910.34;1730048;82;21502;-70
2022/07/30 00:14:06;;;;;;;10.60;4.10;;;;;;;20.29;100.00;99905.02;1732697;82;21118;-71
2022/07/30 00:16:34;;;;;;;8.98;3.62;;;;;;;20.27;100.00;99905.88;1734528;82;21058;-71
2022/07/30 00:19:02;;;;;;;6.92;3.52;;;;;;;20.30;100.00;99908.00;1725842;82;21118;-70
2022/07/30 00:21:29;;;;;;;6.00;3.65;;;;;;;20.30;100.00;99910.77;1732545;82;21098;-71
2022/07/30 00:23:57;;;;;;;8.23;4.60;;;;;;;20.26;100.00;99912.56;1737205;82;21936;-71
2022/07/30 00:26:23;;;;;;;8.63;3.70;;;;;;;20.21;100.00;99907.20;1738011;82;21133;-71
2022/07/30 00:28:49;;;;;;;7.47;3.60;;;;;;;20.17;100.00;99906.24;1738747;82;21518;-71
2022/07/30 00:31:17;;;;;;;8.05;3.77;;;;;;;20.20;100.00;99909.72;1735892;82;21074;-71
2022/07/30 00:33:44;;;;;;;5.58;3.60;;;;;;;20.17;100.00;99904.29;1744433;82;21070;-71
2022/07/30 00:36:11;;;;;;;9.53;4.25;;;;;;;20.13;100.00;99917.71;1724306;82;21071;-71
2022/07/30 00:38:38;;;;;;;8.20;3.75;;;;;;;20.07;100.00;99906.61;1726559;82;21024;-71
2022/07/30 00:41:05;;;;;;;11.28;3.90;;;;;;;20.02;100.00;99903.45;1725400;82;21051;-70
2022/07/30 00:43:33;;;;;;;9.20;3.85;;;;;;;19.99;100.00;99903.30;1714725;82;21445;-69
2022/07/30 00:45:59;;;;;;;8.80;3.92;;;;;;;19.99;100.00;99908.25;1729051;82;21035;-70
2022/07/30 00:50:13;;;;;;;7.28;4.30;;;;;;;19.98;100.00;99905.24;1807960;78;23502;-69
2022/07/30 00:52:41;;;;;;;7.33;4.40;;;;;;;19.86;100.00;99907.89;1760508;80;21054;-69
2022/07/30 00:55:10;;;;;;;8.43;4.05;;;;;;;19.81;100.00;99902.53;1759155;80;21518;-70
2022/07/30 00:57:36;;;;;;;9.20;4.30;;;;;;;19.80;100.00;99901.72;1758639;80;21114;-69
2022/07/30 01:00:07;;;;;;;8.68;3.87;;;;;;;19.80;100.00;99893.43;1756089;81;21031;-69
2022/07/30 01:02:34;;;;;;;7.42;3.90;;;;;;;19.80;100.00;99899.55;1759476;80;21066;-69
2022/07/30 01:05:01;;;;;;;6.45;4.15;;;;;;;19.75;100.00;99896.95;1743497;80;21027;-70
2022/07/30 01:07:27;;;;;;;7.62;4.10;;;;;;;19.71;100.00;99898.73;1755094;81;21019;-70
2022/07/30 01:09:55;;;;;;;8.15;3.95;;;;;;;19.71;100.00;99893.22;1754245;81;21194;-69
2022/07/30 01:12:24;;;;;;;8.13;4.00;;;;;;;19.73;100.00;99897.86;1755063;80;21039;-69
2022/07/30 01:14:57;;;;;;;8.88;3.98;;;;;;;19.70;100.00;99890.20;1752232;81;21502;-69
2022/07/30 01:17:24;;;;;;;7.53;4.53;;;;;;;19.65;100.00;99883.49;1756507;80;21508;-70
2022/07/30 01:19:57;;;;;;;5.55;3.80;;;;;;;19.59;100.00;99885.59;1745553;81;21031;-69
2022/07/30 01:22:45;;;;;;;7.47;4.17;;;;;;;19.60;100.00;99886.41;1754833;80;21085;-70
2022/07/30 01:25:20;;;;;;;8.70;3.98;;;;;;;19.60;100.00;99883.65;1696970;83;21082;-69
2022/07/30 01:28:01;;;;;;;7.62;3.65;;;;;;;19.57;100.00;99878.22;1709749;83;21118;-70
2022/07/30 01:30:33;;;;;;;7.95;4.20;;;;;;;19.51;100.00;99873.20;1707728;84;21502;-67
2022/07/30 01:33:00;;;;;;;6.53;4.00;;;;;;;19.46;100.00;99876.12;1708456;83;21518;-69
2022/07/30 01:35:29;;;;;;;6.35;3.60;;;;;;;19.46;100.00;99868.66;1708619;83;21081;-68
2022/07/30 01:37:59;;;;;;;7.00;3.70;;;;;;;19.48;100.00;99869.16;1707926;82;21098;-69
2022/07/30 01:40:27;;;;;;;9.93;4.10;;;;;;;19.48;100.00;99871.10;1706403;83;21034;-67
2022/07/30 01:42:57;;;;;;;8.70;4.15;;;;;;;19.44;100.00;99866.80;1704424;83;21080;-69
2022/07/30 01:45:26;;;;;;;8.48;4.03;;;;;;;19.40;100.00;99865.80;1709997;83;21039;-69
2022/07/30 01:47:59;;;;;;;6.28;3.70;;;;;;;19.42;100.00;99868.25;1722723;82;21069;-69
2022/07/30 01:50:27;;;;;;;6.62;4.00;;;;;;;19.44;100.00;99863.23;1673460;83;21590;-69
2022/07/30 01:52:54;;;;;;;5.95;4.00;;;;;;;19.44;100.00;99864.05;1718865;82;21070;-69
2022/07/30 01:55:34;;;;;;;7.33;4.25;;;;;;;19.41;100.00;99861.94;1718331;82;21539;-69
2022/07/30 01:58:03;;;;;;;7.42;3.77;;;;;;;19.36;100.00;99869.78;1710992;82;21473;-68
2022/07/30 02:00:37;;;;;;;7.20;3.87;;;;;;;19.34;100.00;99874.80;1719218;82;21039;-68
2022/07/30 02:03:07;;;;;;;9.20;4.53;;;;;;;19.32;100.00;99885.38;1713951;82;21989;-68
2022/07/30 02:05:34;;;;;;;5.45;4.03;;;;;;;19.27;100.00;99881.38;1717626;82;20951;-68
2022/07/30 02:08:08;;;;;;;9.65;3.98;;;;;;;19.21;100.00;99874.98;1708854;82;21410;-68
2022/07/30 02:10:46;;;;;;;7.67;3.90;;;;;;;19.16;100.00;99880.11;1712414;82;21611;-68
2022/07/30 02:13:19;;;;;;;7.58;4.08;;;;;;;19.17;100.00;99878.95;1714447;82;21029;-68
2022/07/30 02:16:01;;;;;;;6.60;3.83;;;;;;;19.22;100.00;99877.42;1720568;82;21062;-68
2022/07/30 02:18:55;;;;;;;8.88;4.15;;;;;;;19.24;100.00;99882.60;1717983;82;21008;-69
2022/07/30 02:21:22;;;;;;;6.80;4.10;;;;;;;19.24;100.00;99883.98;1695193;82;21130;-69
2022/07/30 02:23:48;;;;;;;7.58;4.17;;;;;;;19.17;100.00;99880.90;1714782;83;21113;-69
2022/07/30 02:26:18;;;;;;;7.30;3.72;;;;;;;19.14;100.00;99889.27;1714072;82;21046;-69
2022/07/30 02:28:48;;;;;;;7.22;3.92;;;;;;;19.14;100.00;99889.27;1714889;82;21047;-69
2022/07/30 02:31:18;;;;;;;10.53;3.98;;;;;;;19.17;100.00;99888.61;1689693;82;21150;-66
2022/07/30 02:33:45;;;;;;;7.33;3.77;;;;;;;19.20;100.00;99892.09;1716582;82;21035;-68
2022/07/30 02:36:12;;;;;;;7.62;4.10;;;;;;;19.20;100.00;99889.34;1711193;82;21136;-68
2022/07/30 02:38:40;;;;;;;8.23;4.12;;;;;;;19.16;100.00;99884.81;1719869;82;21055;-68
2022/07/30 02:41:07;;;;;;;8.58;3.67;;;;;;;19.13;100.00;99882.12;1713849;82;21117;-67
2022/07/30 02:43:36;;;;;;;8.95;4.05;;;;;;;19.07;100.00;99882.61;1717178;82;21075;-68
2022/07/30 02:46:04;;;;;;;7.75;3.90;;;;;;;19.12;100.00;99885.22;1692144;83;21059;-69
2022/07/30 02:48:32;;;;;;;7.87;3.40;;;;;;;19.18;100.00;99891.63;1711640;82;21442;-68
2022/07/30 02:50:59;;;;;;;6.30;3.80;;;;;;;19.20;100.00;99890.72;1717254;82;20995;-69
2022/07/30 02:53:26;;;;;;;7.25;4.08;;;;;;;19.19;100.00;99884.98;1715404;83;20993;-68
2022/07/30 02:55:54;;;;;;;6.17;3.58;;;;;;;19.19;100.00;99886.92;1716065;82;20981;-68
2022/07/30 02:58:23;;;;;;;7.00;3.70;;;;;;;19.18;100.00;99883.91;1715951;83;21023;-68
2022/07/30 03:00:51;;;;;;;7.70;3.58;;;;;;;19.19;100.00;99887.73;1720811;82;21004;-68
2022/07/30 03:03:21;;;;;;;9.50;3.33;;;;;;;19.26;100.00;99877.02;1679971;84;21133;-69
2022/07/30 03:05:49;;;;;;;8.70;3.67;;;;;;;19.29;100.00;99874.17;1718298;82;21083;-68
2022/07/30 03:08:17;;;;;;;5.12;3.17;;;;;;;19.26;100.00;99879.78;1719196;82;21035;-68
2022/07/30 03:10:44;;;;;;;7.45;3.33;;;;;;;19.24;100.00;99882.03;1719337;83;21031;-67
2022/07/30 03:13:12;;;;;;;7.10;3.40;;;;;;;19.22;100.00;99873.28;1711938;82;21088;-68
2022/07/30 03:15:47;;;;;;;9.33;3.37;;;;;;;19.25;100.00;99878.15;1718552;83;21062;-70
2022/07/30 03:18:17;;;;;;;6.37;3.40;;;;;;;19.31;100.00;99870.50;1680844;84;21012;-70
2022/07/30 03:20:48;;;;;;;6.78;2.98;;;;;;;19.32;100.00;99870.19;1661834;85;21031;-68
2022/07/30 03:23:18;;;;;;;8.50;3.67;;;;;;;19.31;100.00;99872.70;1662341;86;21624;-68
2022/07/30 03:25:52;;;;;;;5.45;3.30;;;;;;;19.31;100.00;99880.16;1719479;82;21529;-68
2022/07/30 03:28:19;;;;;;;4.85;3.30;;;;;;;19.29;100.00;99879.69;1713580;83;21050;-69
2022/07/30 03:30:45;;;;;;;4.45;3.10;;;;;;;19.31;100.00;99878.22;1711438;82;21492;-69
2022/07/30 03:33:12;;;;;;;6.50;2.90;;;;;;;19.38;100.00;99879.91;1713240;83;21630;-70
2022/07/30 03:35:38;;;;;;;8.48;3.12;;;;;;;19.43;100.00;99880.92;1714186;83;21078;-70
2022/07/30 03:38:05;;;;;;;6.53;3.05;;;;;;;19.46;100.00;99882.46;1637387;83;21102;-70
2022/07/30 03:40:33;;;;;;;6.83;3.30;;;;;;;19.48;100.00;99879.38;1717851;83;21090;-69
2022/07/30 03:43:00;;;;;;;4.92;2.90;;;;;;;19.49;100.00;99883.18;1716823;83;21051;-69
2022/07/30 03:45:27;;;;;;;8.43;3.33;;;;;;;19.49;100.00;99883.18;1716965;82;21046;-70
2022/07/30 03:47:57;;;;;;;5.60;3.27;;;;;;;19.56;100.00;99883.50;1713095;83;21502;-69
2022/07/30 03:50:26;;;;;;;6.45;3.17;;;;;;;19.66;100.00;99883.74;1736343;82;21059;-69
2022/07/30 03:52:54;;;;;;;5.35;3.45;;;;;;;19.72;100.00;99889.33;1744379;80;21126;-70
2022/07/30 03:55:21;;;;;;;6.50;3.08;;;;;;;19.75;100.00;99885.90;1732916;81;21054;-68
2022/07/30 03:57:47;;;;;;;5.08;2.90;;;;;;;19.80;100.00;99882.98;1742518;81;21027;-69
2022/07/30 04:00:16;;;;;;;5.62;3.22;;;;;;;19.83;100.00;99881.75;1743827;82;21066;-69
2022/07/30 04:02:47;;;;;;;5.60;3.42;;;;;;;19.86;100.00;99878.89;1740748;81;21126;-69
2022/07/30 04:05:17;;;;;;;5.97;3.30;;;;;;;19.89;100.00;99880.98;1728937;81;21027;-68
2022/07/30 04:07:44;;;;;;;6.95;3.20;;;;;;;19.98;100.00;99878.20;1708570;82;21488;-69
2022/07/30 04:10:11;;;;;;;7.78;2.90;;;;;;;20.09;100.00;99881.64;1746309;82;21106;-69
2022/07/30 04:12:57;;;;;;;4.72;3.17;;;;;;;20.17;100.00;99881.37;1743627;81;21606;-68
2022/07/30 04:15:24;;;;;;;5.28;2.87;;;;;;;20.21;100.00;99874.85;1746236;82;21055;-68
2022/07/30 04:17:56;;;;;;;9.03;3.30;;;;;;;20.24;100.00;99877.52;1740952;81;21060;-69
2022/07/30 04:20:27;;;;;;;5.25;2.80;;;;;;;20.28;100.00;99878.50;1745918;82;21086;-68
2022/07/30 04:22:56;;;;;;;6.45;3.00;;;;;;;20.31;100.00;99882.80;1744516;81;21502;-69
2022/07/30 04:25:23;;;;;;;6.72;3.00;;;;;;;20.38;100.00;99875.36;1721371;82;21030;-68
2022/07/30 04:27:49;;;;;;;4.33;2.95;;;;;;;20.47;100.00;99875.33;1741074;80;21044;-68
2022/07/30 04:30:16;;;;;;;7.20;2.83;;;;;;;20.55;100.00;99876.64;1746106;81;21039;-69
2022/07/30 04:32:43;;;;;;;6.03;3.00;;;;;;;20.59;100.00;99869.30;1744575;82;21099;-69
2022/07/30 04:35:11;;;;;;;8.58;3.17;;;;;;;20.65;100.00;99868.55;1741886;81;21012;-69
2022/07/30 04:37:52;;;;;;;5.92;3.30;;;;;;;20.71;100.00;99869.41;1712784;82;21090;-70
2022/07/30 04:40:19;;;;;;;5.85;2.85;;;;;;;20.81;100.00;99870.95;1710243;84;21541;-69
2022/07/30 04:42:46;;;;;;;5.83;3.30;;;;;;;20.99;100.00;99866.09;1744057;81;21145;-69
2022/07/30 04:45:14;;;;;;;4.85;2.92;;;;;;;21.11;100.00;99869.80;1746619;81;21090;-69
2022/07/30 04:47:45;;;;;;;7.35;2.70;;;;;;;21.20;100.00;99867.75;1701430;83;21138;-69
2022/07/30 04:50:27;;;;;;;5.72;3.17;;;;;;;21.29;100.00;99865.70;1744885;81;21094;-70
2022/07/30 04:52:54;;;;;;;4.95;2.60;;;;;;;21.33;100.00;99863.06;1753953;81;21099;-69
2022/07/30 04:55:24;;;;;;;7.78;3.05;;;;;;;21.37;100.00;99854.31;1755095;81;21054;-70
2022/07/30 04:57:50;;;;;;;6.53;2.87;;;;;;;21.42;100.00;99861.03;1752847;81;21102;-68
2022/07/30 05:00:17;;;;;;;5.05;2.45;;;;;;;21.49;100.00;99854.94;1724995;81;21074;-69
2022/07/30 05:02:45;;;;;;;5.78;2.42;;;;;;;21.57;100.00;99856.25;1751400;80;21080;-70
2022/07/30 05:05:16;;;;;;;5.78;2.45;;;;;;;21.76;100.00;99864.82;1753846;81;21051;-70
2022/07/30 05:07:43;;;;;;;8.30;2.83;;;;;;;22.05;100.00;99866.64;1753521;81;21051;-69
2022/07/30 05:10:12;;;;;;;3.52;2.40;;;;;;;22.36;100.00;99872.19;1749748;81;21050;-69
2022/07/30 05:12:41;;;;;;;5.72;2.60;;;;;;;22.69;100.00;99863.20;1720076;81;21078;-69
2022/07/30 05:15:09;;;;;;;5.10;2.00;;;;;;;23.07;100.00;99868.31;1753574;81;21558;-70
2022/07/30 05:17:37;;;;;;;6.53;2.17;;;;;;;23.40;100.00;99861.14;1754557;80;21070;-69
2022/07/30 05:20:08;;;;;;;5.15;2.20;;;;;;;23.73;100.00;99855.57;1753581;81;21074;-69
2022/07/30 05:22:52;;;;;;;5.37;2.27;;;;;;;24.07;100.00;99861.02;1746724;80;21532;-70
2022/07/30 05:25:21;;;;;;;5.05;2.00;;;;;;;24.33;100.00;99847.17;1756176;80;21050;-69
2022/07/30 05:27:50;;;;;;;4.20;1.80;;;;;;;24.53;100.00;99861.36;1755730;80;21620;-69
2022/07/30 05:30:16;;;;;;;4.42;1.80;;;;;;;24.70;100.00;99852.61;1754706;81;21089;-69
2022/07/30 05:32:45;;;;;;;4.85;1.80;;;;;;;24.81;100.00;99846.70;1748730;81;21637;-70
2022/07/30 05:35:11;;;;;;;5.30;1.60;;;;;;;24.93;100.00;99856.37;1747222;81;21024;-70
2022/07/30 05:37:38;;;;;;;4.62;1.77;;;;;;;24.91;100.00;99860.66;1757982;80;21569;-70
2022/07/30 05:40:06;;;;;;;5.45;1.85;;;;;;;24.95;100.00;99862.95;1746181;80;21023;-69
2022/07/30 05:42:52;;;;;;;6.53;1.90;;;;;;;25.10;100.00;99865.69;1738990;81;21068;-70
2022/07/30 05:45:18;;;;;;;4.92;1.75;;;;;;;25.41;100.00;99861.94;1753407;81;21042;-70
2022/07/30 05:47:45;;;;;;;4.67;1.90;;;;;;;25.71;100.00;99861.58;1745443;80;21174;-70
2022/07/30 05:50:12;;;;;;;5.58;1.65;;;;;;;25.95;100.00;99855.42;1733793;81;21079;-70
2022/07/30 05:52:38;;;;;;;5.75;1.50;;;;;;;26.25;100.00;99862.55;1742212;80;21141;-70
2022/07/30 05:55:09;;;;;;;2.95;1.30;;;;;;;26.40;100.00;99850.42;1745415;81;21064;-70
2022/07/30 05:57:37;;;;;;;4.00;1.40;;;;;;;26.51;100.00;99852.80;1742147;81;21079;-69
2022/07/30 06:00:05;;;;;;;3.87;1.37;;;;;;;26.76;100.00;99853.16;1727278;81;21015;-71
2022/07/30 06:02:43;;;;;;;4.78;1.67;;;;;;;27.03;100.00;99856.97;1745112;81;21951;-71
2022/07/30 06:05:23;;;;;;;6.50;2.08;;;;;;;27.14;93.92;99849.53;1744314;81;21019;-71
2022/07/30 06:07:50;;;;;;;3.80;1.55;;;;;;;27.11;95.39;99847.50;1739227;81;21110;-70
2022/07/30 06:10:19;;;;;;;3.50;1.45;;;;;;;27.17;90.46;99854.98;1721924;82;21535;-70
2022/07/30 06:12:46;;;;;;;4.35;1.42;;;;;;;27.25;93.91;99854.45;1733652;82;21082;-70
2022/07/30 06:15:15;;;;;;;6.97;1.20;;;;;;;27.41;94.32;99855.87;1742246;81;21079;-70
2022/07/30 06:17:44;;;;;;;7.28;1.40;;;;;;;27.66;91.03;99851.39;1739286;81;21063;-70
2022/07/30 06:20:15;;;;;;;4.12;1.30;;;;;;;28.02;97.58;99849.73;1733734;81;21613;-71
2022/07/30 06:22:44;;;;;;;5.30;1.40;;;;;;;28.46;90.53;99842.73;1744073;81;21044;-69
2022/07/30 06:25:13;;;;;;;3.72;1.50;;;;;;;28.81;83.62;99844.19;1741953;81;21055;-70
2022/07/30 06:27:40;;;;;;;5.75;1.40;;;;;;;29.01;79.56;99840.72;1727257;82;21094;-71
2022/07/30 06:30:08;;;;;;;2.80;1.40;;;;;;;29.16;70.97;99837.36;1745181;81;21114;-71
2022/07/30 06:32:34;;;;;;;3.42;1.42;;;;;;;29.31;75.37;99835.45;1741012;81;21070;-71
2022/07/30 06:35:01;;;;;;;5.50;1.35;;;;;;;29.49;74.46;99844.13;1746117;80;21043;-71
2022/07/30 06:37:30;;;;;;;2.87;1.17;;;;;;;29.74;73.06;99842.79;1745134;81;21062;-70
2022/07/30 06:39:58;;;;;;;2.33;1.15;;;;;;;30.04;67.82;99841.06;1747214;81;21063;-71
2022/07/30 06:42:32;;;;;;;2.85;1.27;;;;;;;30.28;68.02;99829.63;1719345;82;21560;-70
2022/07/30 06:45:07;;;;;;;2.98;1.00;;;;;;;30.52;68.22;99837.27;1714325;81;21041;-71
2022/07/30 06:47:42;;;;;;;4.50;1.12;;;;;;;30.79;67.32;99840.41;1706865;83;21058;-71
2022/07/30 06:50:09;;;;;;;5.22;1.60;;;;;;;30.96;61.05;99842.39;1742551;81;21438;-70
2022/07/30 06:52:35;;;;;;;3.12;1.20;;;;;;;30.93;60.29;99841.17;1747625;81;21059;-70
2022/07/30 06:55:03;;;;;;;2.80;1.10;;;;;;;31.04;58.94;99846.80;1737301;81;21018;-71
2022/07/30 06:57:34;;;;;;;3.87;1.17;;;;;;;30.97;57.29;99837.78;1748469;81;21059;-71
2022/07/30 07:00:01;;;;;;;3.47;1.10;;;;;;;31.02;56.96;99836.57;1744815;81;21055;-70
2022/07/30 07:02:31;;;;;;;2.55;1.15;;;;;;;31.15;57.83;99839.73;1746430;81;21044;-69
2022/07/30 07:05:11;;;;;;;2.52;1.20;;;;;;;31.32;51.94;99841.69;1750629;81;21597;-71
2022/07/30 07:07:41;;;;;;;3.33;1.10;;;;;;;31.14;50.29;99841.77;1745190;81;21618;-71
2022/07/30 07:10:09;;;;;;;4.03;1.45;;;;;;;31.15;52.64;99840.53;1746320;81;21437;-70
2022/07/30 07:12:46;;;;;;;4.80;1.10;;;;;;;31.30;51.09;99835.66;1742906;81;21163;-71
2022/07/30 07:15:14;;;;;;;2.70;1.32;;;;;;;31.46;52.66;99838.17;1746564;81;21071;-70
2022/07/30 07:17:42;;;;;;;6.15;1.80;;;;;;;31.61;48.43;99833.91;1745485;80;21122;-70
2022/07/30 07:20:20;;;;;;;2.37;1.10;;;;;;;31.56;49.17;99837.97;1731655;81;21055;-71
2022/07/30 07:22:48;;;;;;;2.58;1.20;;;;;;;31.53;49.14;99834.58;1743278;81;21035;-70
2022/07/30 07:25:15;;;;;;;4.47;1.22;;;;;;;31.62;50.07;99832.09;1748539;81;21583;-71
2022/07/30 07:27:43;;;;;;;2.58;1.20;;;;;;;31.70;45.85;99832.86;1749362;81;21113;-71
2022/07/30 07:30:11;;;;;;;6.17;1.00;;;;;;;31.47;46.27;99827.13;1742551;81;21809;-70
2022/07/30 07:32:39;;;;;;;2.92;1.10;;;;;;;31.35;48.32;99823.39;1728833;81;21443;-69
2022/07/30 07:35:07;;;;;;;2.50;1.20;;;;;;;31.25;46.80;99822.03;1707981;83;20997;-69
2022/07/30 07:37:36;;;;;;;6.72;1.32;;;;;;;31.18;49.09;99820.66;1744573;81;21037;-68
2022/07/30 07:40:06;;;;;;;3.60;1.20;;;;;;;31.26;48.34;99819.39;1746766;81;21014;-67
2022/07/30 07:42:34;;;;;;;2.50;1.27;;;;;;;31.27;49.33;99816.79;1746675;81;21008;-68
2022/07/30 07:45:02;;;;;;;4.90;1.32;;;;;;;31.46;53.02;99821.30;1696247;83;21036;-68
2022/07/30 07:47:33;;;;;;;2.33;1.22;;;;;;;31.71;49.77;99815.55;1748525;81;21090;-68
2022/07/30 07:50:02;;;;;;;3.35;1.30;;;;;;;31.91;50.89;99821.45;1694636;81;21036;-68
2022/07/30 07:52:30;;;;;;;3.22;1.10;;;;;;;32.08;49.41;99823.36;1753935;80;21098;-69
2022/07/30 07:54:57;;;;;;;3.65;1.10;;;;;;;32.12;48.42;99824.73;1747935;80;21016;-69
2022/07/30 07:57:23;;;;;;;5.35;1.22;;;;;;;32.14;46.17;99818.87;1741027;80;21054;-69
2022/07/30 07:59:53;;;;;;;4.35;1.30;;;;;;;32.20;46.37;99819.25;1750945;80;21475;-71
2022/07/30 08:02:22;;;;;;;2.35;1.00;;;;;;;32.33;47.52;99816.91;1754459;81;21555;-70
2022/07/30 08:04:51;;;;;;;2.83;1.30;;;;;;;32.42;47.20;99806.55;1750525;80;21574;-71
2022/07/30 08:07:39;;;;;;;5.42;1.22;;;;;;;32.27;46.76;99807.32;1754408;80;21126;-69
2022/07/30 08:10:06;;;;;;;5.15;1.12;;;;;;;32.30;45.60;99798.03;1750448;81;20989;-70
2022/07/30 08:12:49;;;;;;;3.30;1.05;;;;;;;32.44;45.56;99801.31;1753042;81;21571;-69
2022/07/30 08:15:23;;;;;;;3.42;1.25;;;;;;;32.53;43.24;99808.66;1754563;81;21017;-68
2022/07/30 08:18:02;;;;;;;4.80;1.20;;;;;;;32.41;42.07;99810.61;1751594;80;21054;-71
2022/07/30 08:20:32;;;;;;;2.37;0.90;;;;;;;32.27;41.67;99801.69;1754253;81;20995;-70
2022/07/30 08:22:59;;;;;;;1.40;1.00;;;;;;;32.21;42.00;99800.51;1754055;80;21560;-70
2022/07/30 08:25:26;;;;;;;3.40;1.32;;;;;;;32.20;40.72;99796.12;1724224;81;21093;-70
2022/07/30 08:27:53;;;;;;;4.58;1.37;;;;;;;32.09;41.67;99796.01;1754748;81;21648;-70
2022/07/30 08:30:21;;;;;;;3.10;1.00;;;;;;;32.02;41.63;99793.42;1747163;81;21059;-69
2022/07/30 08:32:48;;;;;;;3.00;0.98;;;;;;;32.05;41.35;99793.19;1728972;82;21704;-69
2022/07/30 08:35:16;;;;;;;2.65;1.37;;;;;;;32.19;42.81;99792.30;1754170;81;21003;-71
2022/07/30 08:37:42;;;;;;;2.50;1.10;;;;;;;32.29;42.84;99786.56;1745725;81;21079;-69
2022/07/30 08:40:10;;;;;;;2.12;1.00;;;;;;;32.35;42.86;99775.03;1756072;81;21023;-71
2022/07/30 08:42:39;;;;;;;3.60;1.20;;;;;;;32.47;42.48;99770.89;1743146;81;21597;-69
2022/07/30 08:45:07;;;;;;;5.70;0.90;;;;;;;32.63;41.00;99765.50;1754901;81;21054;-70
2022/07/30 08:47:34;;;;;;;3.50;1.10;;;;;;;32.60;41.06;99764.94;1750449;80;21081;-69
2022/07/30 08:50:11;;;;;;;2.17;0.90;;;;;;;32.56;42.12;99770.58;1749969;81;21003;-72
2022/07/30 08:52:39;;;;;;;3.15;1.00;;;;;;;32.73;40.35;99765.21;1746356;80;21056;-70
2022/07/30 08:55:09;;;;;;;3.70;1.15;;;;;;;32.93;41.07;99766.97;1753862;81;20967;-69
2022/07/30 08:57:38;;;;;;;3.87;1.00;;;;;;;33.06;39.21;99760.14;1719121;82;21075;-70
2022/07/30 09:00:08;;;;;;;2.70;1.10;;;;;;;32.98;38.50;99755.20;1746309;81;21506;-70
2022/07/30 09:02:37;;;;;;;2.98;0.93;;;;;;;32.95;39.59;99752.44;1739973;81;21051;-69
2022/07/30 09:05:07;;;;;;;2.80;1.07;;;;;;;33.01;40.23;99753.58;1751529;81;21039;-69
2022/07/30 09:07:36;;;;;;;3.77;1.30;;;;;;;33.04;38.84;99754.14;1711141;82;21007;-69
2022/07/30 09:10:05;;;;;;;3.25;1.02;;;;;;;32.98;38.42;99755.20;1704559;81;21471;-69
2022/07/30 09:12:42;;;;;;;2.42;1.07;;;;;;;32.79;39.35;99751.64;1742011;80;21094;-69
2022/07/30 09:15:16;;;;;;;1.95;0.98;;;;;;;32.66;38.63;99751.20;1755802;80;20980;-67
2022/07/30 09:17:56;;;;;;;2.47;0.95;;;;;;;32.41;39.62;99757.08;1753532;80;21605;-68
2022/07/30 09:20:31;;;;;;;3.80;1.30;;;;;;;32.25;40.67;99755.42;1742303;82;21154;-69
2022/07/30 09:23:01;;;;;;;2.75;0.93;;;;;;;32.14;39.78;99749.89;1750960;80;21115;-70
2022/07/30 09:25:48;;;;;;;2.20;1.20;;;;;;;31.99;39.40;99744.95;1699038;83;21415;-69
2022/07/30 09:28:33;;;;;;;2.77;1.00;;;;;;;31.65;40.67;99753.09;1679389;83;21035;-69
2022/07/30 09:31:17;;;;;;;8.03;1.80;;;;;;;31.38;41.18;99758.48;1720149;81;21095;-70
2022/07/30 09:34:02;;;;;;;2.60;1.07;;;;;;;31.09;40.46;99755.82;1758413;80;21523;-70
2022/07/30 09:36:40;;;;;;;3.50;1.10;;;;;;;30.75;40.97;99753.31;1681983;83;21593;-70
2022/07/30 09:39:37;;;;;;;4.08;1.20;;;;;;;30.56;43.12;99760.21;1745531;81;21011;-69
2022/07/30 09:42:25;;;;;;;2.22;1.22;;;;;;;30.46;42.77;99751.81;1751360;80;21130;-70
2022/07/30 09:45:10;;;;;;;4.40;1.27;;;;;;;30.40;45.38;99754.78;1747502;81;21078;-70
2022/07/30 09:47:43;;;;;;;4.90;1.37;;;;;;;30.46;47.57;99753.22;1724998;82;22030;-69
2022/07/30 09:50:14;;;;;;;2.83;1.10;;;;;;;30.45;45.00;99755.22;1744467;81;21502;-69
2022/07/30 09:52:44;;;;;;;2.58;1.37;;;;;;;30.50;46.19;99757.59;1760225;79;21522;-69
2022/07/30 09:55:11;;;;;;;4.17;1.40;;;;;;;30.57;46.14;99765.23;1759226;80;20962;-69
2022/07/30 09:57:58;;;;;;;4.72;1.30;;;;;;;30.52;45.95;99764.23;1759861;80;21006;-70
2022/07/30 10:00:29;;;;;;;5.08;1.20;;;;;;;30.48;47.40;99758.62;1730280;81;21041;-70
2022/07/30 10:02:59;;;;;;;4.08;1.40;;;;;;;30.60;47.04;99762.41;1717483;83;21039;-69
2022/07/30 10:05:53;;;;;;;2.50;1.30;;;;;;;30.73;48.02;99761.36;1654798;84;21680;-70
2022/07/30 10:08:20;;;;;;;3.67;1.50;;;;;;;30.56;47.23;99760.81;1713514;83;21783;-68
2022/07/30 10:10:48;;;;;;;2.92;1.47;;;;;;;30.43;47.43;99754.03;1700124;82;21015;-68
2022/07/30 10:13:15;;;;;;;2.33;1.30;;;;;;;30.36;46.13;99741.37;1722699;83;21007;-68
2022/07/30 10:15:43;;;;;;;2.65;1.20;;;;;;;30.27;48.97;99739.58;1721830;83;21018;-68
2022/07/30 10:18:11;;;;;;;3.70;1.40;;;;;;;30.26;49.09;99744.38;1697994;82;21066;-70
2022/07/30 10:20:46;;;;;;;5.33;1.62;;;;;;;30.30;49.94;99741.56;1690170;83;21534;-69
2022/07/30 10:23:19;;;;;;;5.17;1.77;;;;;;;30.32;49.55;99744.19;1704530;83;21110;-70
2022/07/30 10:26:04;;;;;;;3.27;1.50;;;;;;;30.35;47.11;99742.58;1719351;82;21023;-68
2022/07/30 10:28:49;;;;;;;3.20;1.70;;;;;;;30.24;47.03;99741.79;1694637;84;21503;-68
2022/07/30 10:31:15;;;;;;;5.75;1.57;;;;;;;30.06;47.06;99730.59;1721509;82;21565;-67
2022/07/30 10:33:42;;;;;;;5.20;1.40;;;;;;;30.06;49.35;99736.20;1722841;82;21448;-68
2022/07/30 10:36:10;;;;;;;4.00;1.45;;;;;;;30.15;49.49;99737.20;1723497;82;21138;-68
2022/07/30 10:38:37;;;;;;;3.35;1.60;;;;;;;30.25;47.92;99733.58;1719602;82;21022;-69
2022/07/30 10:41:45;;;;;;;2.52;1.40;;;;;;;30.19;46.19;99732.36;1721554;82;21751;-69
2022/07/30 10:44:37;;;;;;;2.72;1.30;;;;;;;30.07;48.42;99741.42;1717369;82;21980;-65
2022/07/30 10:47:06;;;;;;;4.00;1.57;;;;;;;29.97;49.40;99736.59;1720021;82;21142;-66
2022/07/30 10:49:34;;;;;;;3.20;1.40;;;;;;;29.83;47.88;99735.17;1719891;82;20983;-66
2022/07/30 10:52:01;;;;;;;8.75;1.60;;;;;;;29.72;48.30;99737.20;1718200;82;21567;-65
2022/07/30 10:54:43;;;;;;;4.20;1.60;;;;;;;29.68;49.42;99735.58;1713282;84;21035;-65
2022/07/30 10:57:15;;;;;;;4.37;1.37;;;;;;;29.59;50.43;99729.75;1738659;81;21079;-66
2022/07/30 10:59:58;;;;;;;3.27;1.60;;;;;;;29.60;52.17;99732.77;1744236;81;21568;-66
2022/07/30 11:02:28;;;;;;;4.20;1.50;;;;;;;29.72;52.84;99732.98;1717413;82;21058;-65
2022/07/30 11:05:20;;;;;;;4.67;1.50;;;;;;;29.76;48.95;99719.73;1717237;83;21035;-66
2022/07/30 11:07:47;;;;;;;3.15;1.40;;;;;;;29.74;50.71;99720.75;1682518;83;21122;-65
2022/07/30 11:10:39;;;;;;;4.42;1.50;;;;;;;29.61;50.32;99713.34;1651017;85;21056;-66
2022/07/30 11:13:06;;;;;;;4.05;1.72;;;;;;;29.49;48.18;99715.12;1689136;82;21047;-65
2022/07/30 11:15:56;;;;;;;2.90;1.50;;;;;;;29.36;50.23;99718.13;1748070;81;21009;-66
2022/07/30 11:18:25;;;;;;;3.10;1.50;;;;;;;29.30;52.18;99714.72;1745182;81;20972;-65
2022/07/30 11:21:16;;;;;;;3.87;1.52;;;;;;;29.33;52.66;99718.12;1743190;81;20979;-65
2022/07/30 11:23:45;;;;;;;3.80;1.35;;;;;;;29.35;50.73;99712.30;1746368;81;21563;-65
2022/07/30 11:26:45;;;;;;;36.28;8.90;;;;;;;29.29;50.18;99719.52;1725230;81;21601;-64
2022/07/30 11:29:34;;;;;;;6.25;2.00;;;;;;;29.33;52.62;99711.92;1732731;81;21305;-66
2022/07/30 11:32:25;;;;;;;9.43;2.45;;;;;;;29.42;51.02;99712.31;1746918;81;21023;-66
2022/07/30 11:35:24;;;;;;;6.03;2.17;;;;;;;29.42;49.69;99708.70;1747432;82;21410;-64
2022/07/30 11:38:18;;;;;;;3.90;1.60;;;;;;;29.41;50.00;99700.08;1726294;82;21118;-65
2022/07/30 11:40:53;;;;;;;5.10;1.50;;;;;;;29.51;51.20;99700.09;1746867;81;21034;-65
2022/07/30 11:43:31;;;;;;;4.33;1.40;;;;;;;29.65;52.10;99700.09;1743977;81;21058;-65
2022/07/30 11:46:12;;;;;;;5.25;1.45;;;;;;;29.78;53.04;99696.91;1746441;81;20979;-65
2022/07/30 11:48:43;;;;;;;3.80;1.75;;;;;;;29.92;50.33;99687.10;1717482;83;21898;-65
2022/07/30 11:51:10;;;;;;;4.70;1.32;;;;;;;30.02;49.33;99691.89;1740943;81;21527;-65